Terminal Aerodrome Forecast
Issued by NWS

Home | Current Version | Previous Version | Text Only | Print | Product List | Glossary On
Versions: 1 2 3 4 5 6 7 8 9 10 11 12 13 14 15 16 17 18 19 20 21 22 23 24 25 26 27 28 29 30
000
FTUS44 KHGX 081351 AAA
TAFLBX
TAF AMD
KLBX 081351Z 0814/0912 02015G25KT P6SM SCT015 OVC020
     FM082200 02013G23KT P6SM OVC025
     FM090300 01011KT P6SM BKN070 BKN250
     FM090900 01009KT P6SM SCT070 BKN250=

USA.gov is the U.S. government's official web portal to all federal, state and local government web resources and services.